Time,TemperatureF,DewpointF,PressureIn,WindDirection,WindDirectionDegrees,WindSpeedMPH,WindSpeedGustMPH,Humidity,HourlyPrecipIn,Conditions,Clouds,dailyrainin,SolarRadiationWatts/m^2,SoftwareType,DateUTC
2013-07-21 00:01:00,70.0,59.0,-100.00,WSW,247,5.0,13.0,67,0.00,,,0.00,1.000000,,2013-07-21 07:01:00,
2013-07-21 00:32:00,68.0,57.0,-100.00,SW,232,7.0,16.0,69,0.00,,,0.00,1.000000,,2013-07-21 07:32:00,
2013-07-21 00:43:00,68.0,57.0,-100.00,SW,232,7.0,16.0,69,0.00,,,0.00,1.000000,,2013-07-21 07:43:00,
2013-07-21 00:53:00,68.0,57.0,-100.00,SW,232,7.0,16.0,69,0.00,,,0.00,1.000000,,2013-07-21 07:53:00,
2013-07-21 01:01:00,68.0,57.0,-100.00,SW,232,7.0,16.0,69,0.00,,,0.00,1.000000,,2013-07-21 08:01:00,
2013-07-21 01:33:00,64.0,57.0,-100.00,WSW,237,5.0,11.0,77,0.00,,,0.00,1.000000,,2013-07-21 08:33:00,
2013-07-21 01:43:00,64.0,57.0,-100.00,WSW,237,5.0,11.0,77,0.00,,,0.00,1.000000,,2013-07-21 08:43:00,
2013-07-21 01:52:00,64.0,57.0,-100.00,WSW,237,5.0,11.0,77,0.00,,,0.00,1.000000,,2013-07-21 08:52:00,
2013-07-21 02:02:00,64.0,57.0,-100.00,WSW,237,5.0,11.0,77,0.00,,,0.00,1.000000,,2013-07-21 09:02:00,
2013-07-21 02:32:00,62.0,56.0,-100.00,WSW,239,5.0,14.0,80,0.00,,,0.00,1.000000,,2013-07-21 09:32:00,
2013-07-21 02:42:00,62.0,56.0,-100.00,WSW,239,5.0,14.0,80,0.00,,,0.00,1.000000,,2013-07-21 09:42:00,
2013-07-21 02:52:00,62.0,56.0,-100.00,WSW,239,5.0,14.0,80,0.00,,,0.00,1.000000,,2013-07-21 09:52:00,
2013-07-21 03:01:00,62.0,56.0,-100.00,WSW,239,5.0,14.0,80,0.00,,,0.00,1.000000,,2013-07-21 10:01:00,
2013-07-21 03:43:00,60.0,55.0,-100.00,WSW,241,6.0,14.0,85,0.00,,,0.00,1.000000,,2013-07-21 10:43:00,
2013-07-21 03:52:00,60.0,55.0,-100.00,WSW,241,6.0,14.0,85,0.00,,,0.00,1.000000,,2013-07-21 10:52:00,
2013-07-21 04:02:00,60.0,55.0,-100.00,WSW,241,6.0,14.0,85,0.00,,,0.00,1.000000,,2013-07-21 11:02:00,
2013-07-21 04:33:00,58.0,54.0,-100.00,WSW,246,6.0,14.0,88,0.00,,,0.00,1.000000,,2013-07-21 11:33:00,
2013-07-21 04:43:00,58.0,54.0,-100.00,WSW,246,6.0,14.0,88,0.00,,,0.00,1.000000,,2013-07-21 11:43:00,
2013-07-21 04:52:00,58.0,54.0,-100.00,WSW,246,6.0,14.0,88,0.00,,,0.00,1.000000,,2013-07-21 11:52:00,
2013-07-21 05:01:00,58.0,54.0,-100.00,WSW,246,6.0,14.0,88,0.00,,,0.00,1.000000,,2013-07-21 12:01:00,
2013-07-21 05:32:00,58.0,55.0,-100.00,WSW,248,6.0,15.0,89,0.00,,,-99.99,1.000000,,2013-07-21 12:32:00,
2013-07-21 05:43:00,58.0,55.0,-100.00,WSW,248,6.0,15.0,89,0.00,,,-99.99,1.000000,,2013-07-21 12:43:00,
2013-07-21 05:53:00,58.0,55.0,-100.00,WSW,248,6.0,15.0,89,0.00,,,-99.99,1.000000,,2013-07-21 12:53:00,
2013-07-21 06:01:00,58.0,55.0,-100.00,WSW,248,6.0,15.0,89,0.00,,,-99.99,1.000000,,2013-07-21 13:01:00,
2013-07-21 06:43:00,57.0,53.0,-100.00,SW,234,7.0,12.0,88,0.00,,,0.00,4.000000,,2013-07-21 13:43:00,
2013-07-21 06:53:00,57.0,53.0,-100.00,SW,234,7.0,12.0,88,0.00,,,0.00,4.000000,,2013-07-21 13:53:00,
2013-07-21 07:01:00,57.0,53.0,-100.00,SW,234,7.0,12.0,88,0.00,,,0.00,4.000000,,2013-07-21 14:01:00,
2013-07-21 07:43:00,60.0,54.0,-100.00,SW,229,5.0,16.0,81,0.00,,,0.00,88.000000,,2013-07-21 14:43:00,
2013-07-21 07:53:00,60.0,54.0,-100.00,SW,229,5.0,16.0,81,0.00,,,0.00,88.000000,,2013-07-21 14:53:00,
2013-07-21 08:02:00,60.0,54.0,-100.00,SW,229,5.0,16.0,81,0.00,,,0.00,88.000000,,2013-07-21 15:02:00,
2013-07-21 08:43:00,62.0,54.0,-100.00,West,274,7.0,15.0,75,0.00,,,-99.99,141.000000,,2013-07-21 15:43:00,
2013-07-21 08:53:00,62.0,54.0,-100.00,West,274,7.0,15.0,75,0.00,,,-99.99,141.000000,,2013-07-21 15:53:00,
2013-07-21 09:01:00,62.0,54.0,-100.00,West,274,7.0,15.0,75,0.00,,,-99.99,141.000000,,2013-07-21 16:01:00,
2013-07-21 09:32:00,63.0,54.0,-100.00,West,272,8.0,16.0,73,0.00,,,0.00,429.000000,,2013-07-21 16:32:00,
2013-07-21 09:43:00,63.0,54.0,-100.00,West,272,8.0,16.0,73,0.00,,,0.00,429.000000,,2013-07-21 16:43:00,
2013-07-21 09:52:00,63.0,54.0,-100.00,West,272,8.0,16.0,73,0.00,,,0.00,429.000000,,2013-07-21 16:52:00,
2013-07-21 10:02:00,63.0,54.0,-100.00,West,272,8.0,16.0,73,0.00,,,0.00,429.000000,,2013-07-21 17:02:00,
2013-07-21 10:33:00,65.0,55.0,-100.00,West,269,7.0,15.0,69,0.00,,,0.00,592.000000,,2013-07-21 17:33:00,
2013-07-21 10:43:00,65.0,55.0,-100.00,West,269,7.0,15.0,69,0.00,,,0.00,592.000000,,2013-07-21 17:43:00,
2013-07-21 10:53:00,65.0,55.0,-100.00,West,269,7.0,15.0,69,0.00,,,0.00,592.000000,,2013-07-21 17:53:00,
2013-07-21 11:01:00,65.0,55.0,-100.00,West,269,7.0,15.0,69,0.00,,,0.00,592.000000,,2013-07-21 18:01:00,
2013-07-21 11:32:00,67.0,54.0,-100.00,WSW,252,9.0,17.0,64,0.00,,,0.00,721.000000,,2013-07-21 18:32:00,
2013-07-21 11:43:00,67.0,54.0,-100.00,WSW,252,9.0,17.0,64,0.00,,,0.00,721.000000,,2013-07-21 18:43:00,
2013-07-21 11:52:00,67.0,54.0,-100.00,WSW,252,9.0,17.0,64,0.00,,,0.00,721.000000,,2013-07-21 18:52:00,
2013-07-21 12:01:00,67.0,54.0,-100.00,WSW,252,9.0,17.0,64,0.00,,,0.00,721.000000,,2013-07-21 19:01:00,
2013-07-21 12:32:00,69.0,55.0,-100.00,WSW,245,9.0,17.0,62,0.00,,,0.00,822.000000,,2013-07-21 19:32:00,
2013-07-21 12:42:00,69.0,55.0,-100.00,WSW,245,9.0,17.0,62,0.00,,,0.00,822.000000,,2013-07-21 19:42:00,
2013-07-21 12:52:00,69.0,55.0,-100.00,WSW,245,9.0,17.0,62,0.00,,,0.00,822.000000,,2013-07-21 19:52:00,
2013-07-21 13:01:00,69.0,55.0,-100.00,WSW,245,9.0,17.0,62,0.00,,,0.00,822.000000,,2013-07-21 20:01:00,
2013-07-21 13:32:00,71.0,56.0,-100.00,SW,226,12.0,21.0,60,0.00,,,0.00,870.000000,,2013-07-21 20:32:00,
2013-07-21 13:43:00,71.0,56.0,-100.00,SW,226,12.0,21.0,60,0.00,,,0.00,870.000000,,2013-07-21 20:43:00,
2013-07-21 13:52:00,71.0,56.0,-100.00,SW,226,12.0,21.0,60,0.00,,,0.00,870.000000,,2013-07-21 20:52:00,
2013-07-21 14:01:00,71.0,56.0,-100.00,SW,226,12.0,21.0,60,0.00,,,0.00,870.000000,,2013-07-21 21:01:00,
2013-07-21 14:32:00,73.0,56.0,-100.00,SW,216,11.0,22.0,56,0.00,,,0.00,857.000000,,2013-07-21 21:32:00,
2013-07-21 14:43:00,73.0,56.0,-100.00,SW,216,11.0,22.0,56,0.00,,,0.00,857.000000,,2013-07-21 21:43:00,
2013-07-21 14:52:00,73.0,56.0,-100.00,SW,216,11.0,22.0,56,0.00,,,0.00,857.000000,,2013-07-21 21:52:00,
2013-07-21 15:01:00,73.0,56.0,-100.00,SW,216,11.0,22.0,56,0.00,,,0.00,857.000000,,2013-07-21 22:01:00,
2013-07-21 15:43:00,76.0,57.0,-100.00,SSW,212,11.0,22.0,52,0.00,,,0.00,795.000000,,2013-07-21 22:43:00,
2013-07-21 15:52:00,76.0,57.0,-100.00,SSW,212,11.0,22.0,52,0.00,,,0.00,795.000000,,2013-07-21 22:52:00,
2013-07-21 16:01:00,76.0,57.0,-100.00,SSW,212,11.0,22.0,52,0.00,,,0.00,795.000000,,2013-07-21 23:01:00,
2013-07-21 16:43:00,78.0,57.0,-100.00,SW,230,10.0,20.0,48,0.00,,,0.00,729.000000,,2013-07-21 23:43:00,
2013-07-21 16:53:00,78.0,57.0,-100.00,SW,230,10.0,20.0,48,0.00,,,0.00,729.000000,,2013-07-21 23:53:00,
2013-07-21 17:01:00,78.0,57.0,-100.00,SW,230,10.0,20.0,48,0.00,,,0.00,729.000000,,2013-07-22 00:01:00,
2013-07-21 17:32:00,79.0,57.0,-100.00,SW,222,9.0,20.0,47,0.00,,,0.00,597.000000,,2013-07-22 00:32:00,
2013-07-21 17:42:00,79.0,57.0,-100.00,SW,222,9.0,20.0,47,0.00,,,0.00,597.000000,,2013-07-22 00:42:00,
2013-07-21 17:53:00,79.0,57.0,-100.00,SW,222,9.0,20.0,47,0.00,,,0.00,597.000000,,2013-07-22 00:53:00,
2013-07-21 18:02:00,79.0,57.0,-100.00,SW,222,9.0,20.0,47,0.00,,,0.00,597.000000,,2013-07-22 01:02:00,
2013-07-21 18:42:00,82.0,57.0,-100.00,West,260,6.0,17.0,43,0.00,,,0.00,430.000000,,2013-07-22 01:42:00,
2013-07-21 18:52:00,82.0,57.0,-100.00,West,260,6.0,17.0,43,0.00,,,0.00,430.000000,,2013-07-22 01:52:00,
2013-07-21 19:01:00,82.0,57.0,-100.00,West,260,6.0,17.0,43,0.00,,,0.00,430.000000,,2013-07-22 02:01:00,
2013-07-21 19:32:00,80.0,56.0,-100.00,WSW,241,5.0,16.0,44,0.00,,,0.00,271.000000,,2013-07-22 02:32:00,
2013-07-21 19:43:00,80.0,56.0,-100.00,WSW,241,5.0,16.0,44,0.00,,,0.00,271.000000,,2013-07-22 02:43:00,
2013-07-21 19:52:00,80.0,56.0,-100.00,WSW,241,5.0,16.0,44,0.00,,,0.00,271.000000,,2013-07-22 02:52:00,
2013-07-21 20:01:00,80.0,56.0,-100.00,WSW,241,5.0,16.0,44,0.00,,,0.00,271.000000,,2013-07-22 03:01:00,
2013-07-21 20:33:00,76.0,58.0,-100.00,SSW,207,4.0,13.0,53,0.00,,,0.00,99.000000,,2013-07-22 03:33:00,
2013-07-21 20:43:00,76.0,58.0,-100.00,SSW,207,4.0,13.0,53,0.00,,,0.00,99.000000,,2013-07-22 03:43:00,
2013-07-21 20:53:00,76.0,58.0,-100.00,SSW,207,4.0,13.0,53,0.00,,,0.00,99.000000,,2013-07-22 03:53:00,
2013-07-21 21:01:00,76.0,58.0,-100.00,SSW,207,4.0,13.0,53,0.00,,,0.00,99.000000,,2013-07-22 04:01:00,
2013-07-21 21:33:00,71.0,57.0,-100.00,South,190,4.0,10.0,61,0.00,,,0.00,7.000000,,2013-07-22 04:33:00,
2013-07-21 21:43:00,71.0,57.0,-100.00,South,190,4.0,10.0,61,0.00,,,0.00,7.000000,,2013-07-22 04:43:00,
2013-07-21 22:01:00,71.0,57.0,-100.00,South,190,4.0,10.0,61,0.00,,,0.00,7.000000,,2013-07-22 05:01:00,
2013-07-21 22:32:00,71.0,58.0,-100.00,WSW,253,4.0,10.0,64,0.00,,,0.00,1.000000,,2013-07-22 05:32:00,
2013-07-21 22:43:00,71.0,58.0,-100.00,WSW,253,4.0,10.0,64,0.00,,,0.00,1.000000,,2013-07-22 05:43:00,
2013-07-21 22:52:00,71.0,58.0,-100.00,WSW,253,4.0,10.0,64,0.00,,,0.00,1.000000,,2013-07-22 05:52:00,
2013-07-21 23:01:00,71.0,58.0,-100.00,WSW,253,4.0,10.0,64,0.00,,,0.00,1.000000,,2013-07-22 06:01:00,
2013-07-21 23:43:00,70.0,58.0,-100.00,WSW,240,6.0,16.0,65,0.00,,,0.00,1.000000,,2013-07-22 06:43:00,
2013-07-21 23:52:00,70.0,58.0,-100.00,WSW,240,6.0,16.0,65,0.00,,,0.00,1.000000,,2013-07-22 06:52:00,